sensor_id;sensor_type;location;lat;lon;timestamp;pressure;altitude;pressure_sealevel;temperature
69186;BMP280;56298;49.246;9.410;2023-01-19T00:00:59;98389.09;;;-3.14
69186;BMP280;56298;49.246;9.410;2023-01-19T00:03:25;98404.41;;;-3.20
69186;BMP280;56298;49.246;9.410;2023-01-19T00:05:50;98405.03;;;-3.33
69186;BMP280;56298;49.246;9.410;2023-01-19T00:08:17;98403.16;;;-3.33
69186;BMP280;56298;49.246;9.410;2023-01-19T00:10:47;98404.59;;;-3.46
69186;BMP280;56298;49.246;9.410;2023-01-19T00:13:13;98405.13;;;-3.49
69186;BMP280;56298;49.246;9.410;2023-01-19T00:15:39;98409.09;;;-3.41
69186;BMP280;56298;49.246;9.410;2023-01-19T00:18:05;98407.47;;;-3.37
69186;BMP280;56298;49.246;9.410;2023-01-19T00:20:30;98411.53;;;-3.45
69186;BMP280;56298;49.246;9.410;2023-01-19T00:22:57;98416.66;;;-3.48
69186;BMP280;56298;49.246;9.410;2023-01-19T00:25:22;98411.91;;;-3.57
69186;BMP280;56298;49.246;9.410;2023-01-19T00:27:47;98419.53;;;-3.40
69186;BMP280;56298;49.246;9.410;2023-01-19T00:30:16;98413.66;;;-3.42
69186;BMP280;56298;49.246;9.410;2023-01-19T00:32:41;98410.47;;;-3.44
69186;BMP280;56298;49.246;9.410;2023-01-19T00:35:06;98412.56;;;-3.35
69186;BMP280;56298;49.246;9.410;2023-01-19T00:37:32;98420.31;;;-3.29
69186;BMP280;56298;49.246;9.410;2023-01-19T00:39:57;98417.16;;;-3.41
69186;BMP280;56298;49.246;9.410;2023-01-19T00:42:22;98420.13;;;-3.48
69186;BMP280;56298;49.246;9.410;2023-01-19T00:45:16;98417.75;;;-3.55
69186;BMP280;56298;49.246;9.410;2023-01-19T00:47:43;98421.03;;;-3.68
69186;BMP280;56298;49.246;9.410;2023-01-19T00:50:09;98413.25;;;-3.64
69186;BMP280;56298;49.246;9.410;2023-01-19T00:52:39;98417.25;;;-3.62
69186;BMP280;56298;49.246;9.410;2023-01-19T00:55:06;98414.91;;;-3.74
69186;BMP280;56298;49.246;9.410;2023-01-19T00:57:31;98418.31;;;-3.63
69186;BMP280;56298;49.246;9.410;2023-01-19T00:59:57;98418.84;;;-3.61
69186;BMP280;56298;49.246;9.410;2023-01-19T01:02:22;98416.69;;;-3.59
69186;BMP280;56298;49.246;9.410;2023-01-19T01:04:47;98426.06;;;-3.51
69186;BMP280;56298;49.246;9.410;2023-01-19T01:07:13;98426.88;;;-3.61
69186;BMP280;56298;49.246;9.410;2023-01-19T01:09:38;98428.47;;;-3.55
69186;BMP280;56298;49.246;9.410;2023-01-19T01:12:04;98431.97;;;-3.54
69186;BMP280;56298;49.246;9.410;2023-01-19T01:14:29;98430.06;;;-3.59
69186;BMP280;56298;49.246;9.410;2023-01-19T01:16:54;98419.66;;;-3.60
69186;BMP280;56298;49.246;9.410;2023-01-19T01:19:19;98419.94;;;-3.62
69186;BMP280;56298;49.246;9.410;2023-01-19T01:21:45;98419.94;;;-3.57
69186;BMP280;56298;49.246;9.410;2023-01-19T01:24:10;98422.06;;;-3.64
69186;BMP280;56298;49.246;9.410;2023-01-19T01:26:35;98419.66;;;-3.60
69186;BMP280;56298;49.246;9.410;2023-01-19T01:29:01;98426.59;;;-3.54
69186;BMP280;56298;49.246;9.410;2023-01-19T01:31:26;98432.19;;;-3.50
69186;BMP280;56298;49.246;9.410;2023-01-19T01:33:51;98433.84;;;-3.55
69186;BMP280;56298;49.246;9.410;2023-01-19T01:36:16;98438.69;;;-3.57
69186;BMP280;56298;49.246;9.410;2023-01-19T01:38:43;98435.44;;;-3.48
69186;BMP280;56298;49.246;9.410;2023-01-19T01:41:09;98438.09;;;-3.48
69186;BMP280;56298;49.246;9.410;2023-01-19T01:46:09;98447.78;;;-3.53
69186;BMP280;56298;49.246;9.410;2023-01-19T01:48:34;98442.13;;;-3.56
69186;BMP280;56298;49.246;9.410;2023-01-19T01:51:09;98451.53;;;-3.64
69186;BMP280;56298;49.246;9.410;2023-01-19T01:54:25;98454.75;;;-3.62
69186;BMP280;56298;49.246;9.410;2023-01-19T01:56:52;98452.59;;;-3.60
69186;BMP280;56298;49.246;9.410;2023-01-19T01:59:43;98456.63;;;-3.62
69186;BMP280;56298;49.246;9.410;2023-01-19T02:02:15;98452.66;;;-3.70
69186;BMP280;56298;49.246;9.410;2023-01-19T02:05:03;98459.06;;;-3.66
69186;BMP280;56298;49.246;9.410;2023-01-19T02:07:48;98458.44;;;-3.47
69186;BMP280;56298;49.246;9.410;2023-01-19T02:10:33;98452.16;;;-3.32
69186;BMP280;56298;49.246;9.410;2023-01-19T02:13:17;98449.63;;;-3.08
69186;BMP280;56298;49.246;9.410;2023-01-19T02:15:54;98448.69;;;-2.88
69186;BMP280;56298;49.246;9.410;2023-01-19T02:18:21;98443.94;;;-2.96
69186;BMP280;56298;49.246;9.410;2023-01-19T02:20:53;98439.72;;;-3.07
69186;BMP280;56298;49.246;9.410;2023-01-19T02:23:30;98439.69;;;-3.02
69186;BMP280;56298;49.246;9.410;2023-01-19T02:25:58;98433.06;;;-3.15
69186;BMP280;56298;49.246;9.410;2023-01-19T02:28:25;98437.84;;;-3.12
69186;BMP280;56298;49.246;9.410;2023-01-19T02:30:51;98448.00;;;-3.04
69186;BMP280;56298;49.246;9.410;2023-01-19T02:33:16;98441.75;;;-2.89
69186;BMP280;56298;49.246;9.410;2023-01-19T02:35:43;98444.28;;;-2.73
69186;BMP280;56298;49.246;9.410;2023-01-19T02:38:09;98443.13;;;-2.62
69186;BMP280;56298;49.246;9.410;2023-01-19T02:40:35;98433.28;;;-2.71
69186;BMP280;56298;49.246;9.410;2023-01-19T02:43:03;98441.84;;;-2.99
69186;BMP280;56298;49.246;9.410;2023-01-19T02:45:29;98443.50;;;-3.14
69186;BMP280;56298;49.246;9.410;2023-01-19T02:47:54;98443.84;;;-3.25
69186;BMP280;56298;49.246;9.410;2023-01-19T02:50:51;98439.56;;;-3.27
69186;BMP280;56298;49.246;9.410;2023-01-19T02:56:33;98441.75;;;-3.29
69186;BMP280;56298;49.246;9.410;2023-01-19T02:59:09;98446.75;;;-3.17
69186;BMP280;56298;49.246;9.410;2023-01-19T03:04:26;98442.56;;;-3.38
69186;BMP280;56298;49.246;9.410;2023-01-19T03:09:34;98452.13;;;-3.17
69186;BMP280;56298;49.246;9.410;2023-01-19T03:12:08;98454.47;;;-3.10
69186;BMP280;56298;49.246;9.410;2023-01-19T03:14:40;98453.94;;;-3.12
69186;BMP280;56298;49.246;9.410;2023-01-19T03:17:09;98445.25;;;-2.93
69186;BMP280;56298;49.246;9.410;2023-01-19T03:19:38;98449.38;;;-2.71
69186;BMP280;56298;49.246;9.410;2023-01-19T03:22:09;98455.31;;;-2.45
69186;BMP280;56298;49.246;9.410;2023-01-19T03:24:41;98449.84;;;-2.64
69186;BMP280;56298;49.246;9.410;2023-01-19T03:29:42;98454.81;;;-2.82
69186;BMP280;56298;49.246;9.410;2023-01-19T03:32:13;98450.00;;;-2.85
69186;BMP280;56298;49.246;9.410;2023-01-19T03:34:40;98447.63;;;-2.86
69186;BMP280;56298;49.246;9.410;2023-01-19T03:37:09;98452.97;;;-2.86
69186;BMP280;56298;49.246;9.410;2023-01-19T03:39:35;98456.69;;;-2.82
69186;BMP280;56298;49.246;9.410;2023-01-19T03:42:13;98456.56;;;-2.96
69186;BMP280;56298;49.246;9.410;2023-01-19T03:44:41;98456.13;;;-3.14
69186;BMP280;56298;49.246;9.410;2023-01-19T03:47:09;98453.13;;;-3.07
69186;BMP280;56298;49.246;9.410;2023-01-19T03:49:35;98450.22;;;-3.11
69186;BMP280;56298;49.246;9.410;2023-01-19T03:52:02;98457.75;;;-3.18
69186;BMP280;56298;49.246;9.410;2023-01-19T03:54:27;98458.34;;;-3.27
69186;BMP280;56298;49.246;9.410;2023-01-19T03:56:53;98453.84;;;-3.42
69186;BMP280;56298;49.246;9.410;2023-01-19T03:59:18;98456.56;;;-3.47
69186;BMP280;56298;49.246;9.410;2023-01-19T04:01:46;98463.75;;;-3.37
69186;BMP280;56298;49.246;9.410;2023-01-19T04:04:11;98456.94;;;-3.19
69186;BMP280;56298;49.246;9.410;2023-01-19T04:06:37;98467.19;;;-3.26
69186;BMP280;56298;49.246;9.410;2023-01-19T04:09:03;98460.00;;;-3.41
69186;BMP280;56298;49.246;9.410;2023-01-19T04:11:28;98471.78;;;-3.37
69186;BMP280;56298;49.246;9.410;2023-01-19T04:13:53;98469.59;;;-3.24
69186;BMP280;56298;49.246;9.410;2023-01-19T04:16:19;98472.97;;;-3.08
69186;BMP280;56298;49.246;9.410;2023-01-19T04:18:45;98467.84;;;-2.99
69186;BMP280;56298;49.246;9.410;2023-01-19T04:21:11;98476.66;;;-2.94
69186;BMP280;56298;49.246;9.410;2023-01-19T04:23:36;98481.94;;;-2.83
69186;BMP280;56298;49.246;9.410;2023-01-19T04:26:06;98484.66;;;-2.89
69186;BMP280;56298;49.246;9.410;2023-01-19T04:28:32;98486.44;;;-2.79
69186;BMP280;56298;49.246;9.410;2023-01-19T04:30:58;98478.63;;;-2.70
69186;BMP280;56298;49.246;9.410;2023-01-19T04:33:23;98480.56;;;-2.81
69186;BMP280;56298;49.246;9.410;2023-01-19T04:35:50;98483.53;;;-2.82
69186;BMP280;56298;49.246;9.410;2023-01-19T04:38:16;98483.78;;;-2.84
69186;BMP280;56298;49.246;9.410;2023-01-19T04:40:42;98483.44;;;-2.72
69186;BMP280;56298;49.246;9.410;2023-01-19T04:43:07;98482.72;;;-2.83
69186;BMP280;56298;49.246;9.410;2023-01-19T04:45:32;98480.16;;;-2.98
69186;BMP280;56298;49.246;9.410;2023-01-19T04:47:58;98485.50;;;-2.98
69186;BMP280;56298;49.246;9.410;2023-01-19T04:50:23;98491.16;;;-3.05
69186;BMP280;56298;49.246;9.410;2023-01-19T04:52:49;98493.09;;;-3.11
69186;BMP280;56298;49.246;9.410;2023-01-19T04:55:14;98485.53;;;-3.04
69186;BMP280;56298;49.246;9.410;2023-01-19T04:57:40;98496.16;;;-2.88
69186;BMP280;56298;49.246;9.410;2023-01-19T05:00:06;98492.69;;;-2.89
69186;BMP280;56298;49.246;9.410;2023-01-19T05:02:32;98493.44;;;-2.83
69186;BMP280;56298;49.246;9.410;2023-01-19T05:04:58;98490.69;;;-2.72
69186;BMP280;56298;49.246;9.410;2023-01-19T05:07:23;98503.50;;;-2.64
69186;BMP280;56298;49.246;9.410;2023-01-19T05:09:48;98499.75;;;-2.63
69186;BMP280;56298;49.246;9.410;2023-01-19T05:12:13;98508.22;;;-2.51
69186;BMP280;56298;49.246;9.410;2023-01-19T05:14:39;98505.78;;;-2.47
69186;BMP280;56298;49.246;9.410;2023-01-19T05:17:04;98516.00;;;-2.49
69186;BMP280;56298;49.246;9.410;2023-01-19T05:19:30;98509.00;;;-2.45
69186;BMP280;56298;49.246;9.410;2023-01-19T05:21:55;98503.34;;;-2.43
69186;BMP280;56298;49.246;9.410;2023-01-19T05:24:20;98505.31;;;-2.54
69186;BMP280;56298;49.246;9.410;2023-01-19T05:26:45;98504.13;;;-2.43
69186;BMP280;56298;49.246;9.410;2023-01-19T05:29:11;98510.72;;;-2.25
69186;BMP280;56298;49.246;9.410;2023-01-19T05:31:36;98512.19;;;-2.13
69186;BMP280;56298;49.246;9.410;2023-01-19T05:34:03;98508.63;;;-2.03
69186;BMP280;56298;49.246;9.410;2023-01-19T05:36:28;98511.47;;;-1.94
69186;BMP280;56298;49.246;9.410;2023-01-19T05:38:54;98511.69;;;-1.86
69186;BMP280;56298;49.246;9.410;2023-01-19T05:41:19;98516.41;;;-1.77
69186;BMP280;56298;49.246;9.410;2023-01-19T05:43:44;98514.47;;;-1.72
69186;BMP280;56298;49.246;9.410;2023-01-19T05:46:09;98521.13;;;-1.69
69186;BMP280;56298;49.246;9.410;2023-01-19T05:48:35;98521.72;;;-1.72
69186;BMP280;56298;49.246;9.410;2023-01-19T05:51:01;98513.59;;;-1.67
69186;BMP280;56298;49.246;9.410;2023-01-19T05:53:27;98524.13;;;-1.71
69186;BMP280;56298;49.246;9.410;2023-01-19T05:55:52;98527.94;;;-1.52
69186;BMP280;56298;49.246;9.410;2023-01-19T05:58:18;98527.19;;;-1.58
69186;BMP280;56298;49.246;9.410;2023-01-19T06:00:43;98529.75;;;-1.67
69186;BMP280;56298;49.246;9.410;2023-01-19T06:03:08;98532.00;;;-1.55
69186;BMP280;56298;49.246;9.410;2023-01-19T06:05:34;98535.19;;;-1.53
69186;BMP280;56298;49.246;9.410;2023-01-19T06:08:00;98535.75;;;-1.56
69186;BMP280;56298;49.246;9.410;2023-01-19T06:10:25;98538.97;;;-1.54
69186;BMP280;56298;49.246;9.410;2023-01-19T06:12:50;98543.41;;;-1.44
69186;BMP280;56298;49.246;9.410;2023-01-19T06:15:16;98546.84;;;-1.38
69186;BMP280;56298;49.246;9.410;2023-01-19T06:17:41;98548.19;;;-1.36
69186;BMP280;56298;49.246;9.410;2023-01-19T06:20:08;98553.94;;;-1.23
69186;BMP280;56298;49.246;9.410;2023-01-19T06:22:33;98554.72;;;-1.23
69186;BMP280;56298;49.246;9.410;2023-01-19T06:24:58;98550.81;;;-1.11
69186;BMP280;56298;49.246;9.410;2023-01-19T06:27:24;98554.38;;;-1.16
69186;BMP280;56298;49.246;9.410;2023-01-19T06:29:49;98561.47;;;-1.25
69186;BMP280;56298;49.246;9.410;2023-01-19T06:32:14;98566.22;;;-1.17
69186;BMP280;56298;49.246;9.410;2023-01-19T06:34:39;98561.22;;;-1.04
69186;BMP280;56298;49.246;9.410;2023-01-19T06:37:08;98567.47;;;-1.09
69186;BMP280;56298;49.246;9.410;2023-01-19T06:39:35;98568.63;;;-1.15
69186;BMP280;56298;49.246;9.410;2023-01-19T06:42:02;98571.69;;;-1.22
69186;BMP280;56298;49.246;9.410;2023-01-19T06:44:27;98565.38;;;-1.12
69186;BMP280;56298;49.246;9.410;2023-01-19T06:46:53;98567.03;;;-1.16
69186;BMP280;56298;49.246;9.410;2023-01-19T06:49:18;98573.00;;;-1.00
69186;BMP280;56298;49.246;9.410;2023-01-19T06:51:43;98571.19;;;-1.05
69186;BMP280;56298;49.246;9.410;2023-01-19T06:54:08;98568.78;;;-1.07
69186;BMP280;56298;49.246;9.410;2023-01-19T06:56:33;98575.47;;;-1.04
69186;BMP280;56298;49.246;9.410;2023-01-19T06:58:59;98565.38;;;-1.12
69186;BMP280;56298;49.246;9.410;2023-01-19T07:01:24;98565.13;;;-1.35
69186;BMP280;56298;49.246;9.410;2023-01-19T07:03:50;98562.56;;;-1.51
69186;BMP280;56298;49.246;9.410;2023-01-19T07:06:16;98562.53;;;-1.70
69186;BMP280;56298;49.246;9.410;2023-01-19T07:08:41;98567.47;;;-2.07
69186;BMP280;56298;49.246;9.410;2023-01-19T07:11:08;98562.53;;;-2.00
69186;BMP280;56298;49.246;9.410;2023-01-19T07:13:35;98556.81;;;-1.88
69186;BMP280;56298;49.246;9.410;2023-01-19T07:18:30;98555.75;;;-1.92
69186;BMP280;56298;49.246;9.410;2023-01-19T07:20:56;98548.25;;;-1.90
69186;BMP280;56298;49.246;9.410;2023-01-19T07:23:22;98560.59;;;-1.89
69186;BMP280;56298;49.246;9.410;2023-01-19T07:25:47;98561.91;;;-1.86
69186;BMP280;56298;49.246;9.410;2023-01-19T07:28:12;98557.34;;;-1.86
69186;BMP280;56298;49.246;9.410;2023-01-19T07:30:40;98565.56;;;-1.77
69186;BMP280;56298;49.246;9.410;2023-01-19T07:33:06;98565.16;;;-1.65
69186;BMP280;56298;49.246;9.410;2023-01-19T07:35:31;98560.47;;;-1.54
69186;BMP280;56298;49.246;9.410;2023-01-19T07:37:57;98570.72;;;-1.32
69186;BMP280;56298;49.246;9.410;2023-01-19T07:40:22;98570.50;;;-1.16
69186;BMP280;56298;49.246;9.410;2023-01-19T07:42:49;98563.28;;;-0.96
69186;BMP280;56298;49.246;9.410;2023-01-19T07:45:19;98572.13;;;-0.76
69186;BMP280;56298;49.246;9.410;2023-01-19T07:47:46;98559.66;;;-0.53
69186;BMP280;56298;49.246;9.410;2023-01-19T07:50:13;98570.94;;;-0.51
69186;BMP280;56298;49.246;9.410;2023-01-19T07:52:39;98571.44;;;-0.49
69186;BMP280;56298;49.246;9.410;2023-01-19T07:55:05;98572.56;;;-0.36
69186;BMP280;56298;49.246;9.410;2023-01-19T07:57:30;98578.72;;;-0.30
69186;BMP280;56298;49.246;9.410;2023-01-19T07:59:55;98580.34;;;-0.15
69186;BMP280;56298;49.246;9.410;2023-01-19T08:02:21;98583.34;;;-0.17
69186;BMP280;56298;49.246;9.410;2023-01-19T08:04:47;98584.94;;;-0.16
69186;BMP280;56298;49.246;9.410;2023-01-19T08:07:12;98577.56;;;-0.10
69186;BMP280;56298;49.246;9.410;2023-01-19T08:09:38;98589.97;;;0.05
69186;BMP280;56298;49.246;9.410;2023-01-19T08:12:03;98591.75;;;0.10
69186;BMP280;56298;49.246;9.410;2023-01-19T08:14:28;98596.28;;;0.29
69186;BMP280;56298;49.246;9.410;2023-01-19T08:16:58;98595.06;;;0.21
69186;BMP280;56298;49.246;9.410;2023-01-19T08:19:23;98596.66;;;0.36
69186;BMP280;56298;49.246;9.410;2023-01-19T08:21:48;98603.78;;;0.32
69186;BMP280;56298;49.246;9.410;2023-01-19T08:24:17;98601.28;;;0.21
69186;BMP280;56298;49.246;9.410;2023-01-19T08:26:43;98606.16;;;0.33
69186;BMP280;56298;49.246;9.410;2023-01-19T08:29:08;98612.16;;;0.30
69186;BMP280;56298;49.246;9.410;2023-01-19T08:31:33;98617.91;;;0.37
69186;BMP280;56298;49.246;9.410;2023-01-19T08:33:59;98612.47;;;0.29
69186;BMP280;56298;49.246;9.410;2023-01-19T08:36:24;98601.84;;;0.60
69186;BMP280;56298;49.246;9.410;2023-01-19T08:38:49;98607.13;;;0.37
69186;BMP280;56298;49.246;9.410;2023-01-19T08:41:15;98609.03;;;0.37
69186;BMP280;56298;49.246;9.410;2023-01-19T08:43:43;98614.25;;;0.33
69186;BMP280;56298;49.246;9.410;2023-01-19T08:46:11;98617.31;;;0.41
69186;BMP280;56298;49.246;9.410;2023-01-19T08:48:40;98611.94;;;0.41
69186;BMP280;56298;49.246;9.410;2023-01-19T08:51:06;98609.47;;;0.30
69186;BMP280;56298;49.246;9.410;2023-01-19T08:53:32;98615.34;;;0.46
69186;BMP280;56298;49.246;9.410;2023-01-19T08:55:58;98614.31;;;0.56
69186;BMP280;56298;49.246;9.410;2023-01-19T08:58:26;98614.03;;;0.72
69186;BMP280;56298;49.246;9.410;2023-01-19T09:00:52;98623.84;;;0.68
69186;BMP280;56298;49.246;9.410;2023-01-19T09:03:18;98617.63;;;0.67
69186;BMP280;56298;49.246;9.410;2023-01-19T09:05:45;98619.66;;;0.61
69186;BMP280;56298;49.246;9.410;2023-01-19T09:08:11;98621.53;;;0.61
69186;BMP280;56298;49.246;9.410;2023-01-19T09:10:38;98622.91;;;0.44
69186;BMP280;56298;49.246;9.410;2023-01-19T09:13:08;98624.81;;;0.58
69186;BMP280;56298;49.246;9.410;2023-01-19T09:15:36;98626.34;;;0.64
69186;BMP280;56298;49.246;9.410;2023-01-19T09:18:03;98620.94;;;0.64
69186;BMP280;56298;49.246;9.410;2023-01-19T09:20:28;98618.16;;;0.69
69186;BMP280;56298;49.246;9.410;2023-01-19T09:22:55;98618.41;;;0.96
69186;BMP280;56298;49.246;9.410;2023-01-19T09:25:21;98624.97;;;1.17
69186;BMP280;56298;49.246;9.410;2023-01-19T09:27:46;98627.34;;;1.33
69186;BMP280;56298;49.246;9.410;2023-01-19T09:30:12;98625.06;;;1.49
69186;BMP280;56298;49.246;9.410;2023-01-19T09:32:37;98627.69;;;1.63
69186;BMP280;56298;49.246;9.410;2023-01-19T09:35:03;98630.09;;;1.65
69186;BMP280;56298;49.246;9.410;2023-01-19T09:37:28;98629.56;;;1.77
69186;BMP280;56298;49.246;9.410;2023-01-19T09:39:53;98629.94;;;1.84
69186;BMP280;56298;49.246;9.410;2023-01-19T09:42:32;98628.31;;;1.83
69186;BMP280;56298;49.246;9.410;2023-01-19T09:45:04;98638.34;;;1.82
69186;BMP280;56298;49.246;9.410;2023-01-19T09:47:30;98634.53;;;1.92
69186;BMP280;56298;49.246;9.410;2023-01-19T09:50:17;98634.75;;;1.96
69186;BMP280;56298;49.246;9.410;2023-01-19T09:52:48;98628.22;;;1.97
69186;BMP280;56298;49.246;9.410;2023-01-19T09:55:19;98625.00;;;2.18
69186;BMP280;56298;49.246;9.410;2023-01-19T09:57:46;98624.41;;;2.30
69186;BMP280;56298;49.246;9.410;2023-01-19T10:00:16;98621.75;;;2.47
69186;BMP280;56298;49.246;9.410;2023-01-19T10:02:45;98621.91;;;2.42
69186;BMP280;56298;49.246;9.410;2023-01-19T10:05:25;98621.84;;;2.24
69186;BMP280;56298;49.246;9.410;2023-01-19T10:08:05;98628.72;;;2.40
69186;BMP280;56298;49.246;9.410;2023-01-19T10:10:34;98626.69;;;2.45
69186;BMP280;56298;49.246;9.410;2023-01-19T10:13:12;98626.78;;;2.22
69186;BMP280;56298;49.246;9.410;2023-01-19T10:16:02;98630.13;;;1.96
69186;BMP280;56298;49.246;9.410;2023-01-19T10:18:39;98630.94;;;1.97
69186;BMP280;56298;49.246;9.410;2023-01-19T10:26:26;98623.53;;;2.11
69186;BMP280;56298;49.246;9.410;2023-01-19T10:29:00;98637.00;;;2.03
69186;BMP280;56298;49.246;9.410;2023-01-19T10:31:25;98627.56;;;2.23
69186;BMP280;56298;49.246;9.410;2023-01-19T10:33:51;98638.31;;;2.46
69186;BMP280;56298;49.246;9.410;2023-01-19T10:36:33;98632.81;;;2.60
69186;BMP280;56298;49.246;9.410;2023-01-19T10:38:58;98634.72;;;2.68
69186;BMP280;56298;49.246;9.410;2023-01-19T10:41:30;98633.78;;;2.64
69186;BMP280;56298;49.246;9.410;2023-01-19T10:44:04;98632.75;;;2.51
69186;BMP280;56298;49.246;9.410;2023-01-19T10:46:46;98648.81;;;2.47
69186;BMP280;56298;49.246;9.410;2023-01-19T10:49:38;98632.97;;;2.63
69186;BMP280;56298;49.246;9.410;2023-01-19T10:54:49;98643.00;;;2.72
69186;BMP280;56298;49.246;9.410;2023-01-19T10:57:25;98636.66;;;2.68
69186;BMP280;56298;49.246;9.410;2023-01-19T10:59:52;98643.97;;;2.76
69186;BMP280;56298;49.246;9.410;2023-01-19T11:02:18;98633.16;;;2.85
69186;BMP280;56298;49.246;9.410;2023-01-19T11:04:45;98638.94;;;2.92
69186;BMP280;56298;49.246;9.410;2023-01-19T11:12:39;98637.78;;;3.02
69186;BMP280;56298;49.246;9.410;2023-01-19T11:15:20;98637.97;;;2.97
69186;BMP280;56298;49.246;9.410;2023-01-19T11:17:47;98639.38;;;2.85
69186;BMP280;56298;49.246;9.410;2023-01-19T11:20:21;98641.28;;;2.76
69186;BMP280;56298;49.246;9.410;2023-01-19T11:22:48;98637.44;;;2.68
69186;BMP280;56298;49.246;9.410;2023-01-19T11:25:29;98633.88;;;2.59
69186;BMP280;56298;49.246;9.410;2023-01-19T11:27:55;98630.56;;;2.62
69186;BMP280;56298;49.246;9.410;2023-01-19T11:30:23;98625.97;;;2.62
69186;BMP280;56298;49.246;9.410;2023-01-19T11:32:50;98625.28;;;2.48
69186;BMP280;56298;49.246;9.410;2023-01-19T11:35:37;98625.28;;;2.48
69186;BMP280;56298;49.246;9.410;2023-01-19T11:38:15;98621.66;;;2.70
69186;BMP280;56298;49.246;9.410;2023-01-19T11:40:48;98618.34;;;2.73
69186;BMP280;56298;49.246;9.410;2023-01-19T11:43:14;98617.38;;;2.78
69186;BMP280;56298;49.246;9.410;2023-01-19T11:45:40;98618.72;;;2.98
69186;BMP280;56298;49.246;9.410;2023-01-19T11:48:06;98607.38;;;3.05
69186;BMP280;56298;49.246;9.410;2023-01-19T11:50:43;98615.50;;;3.14
69186;BMP280;56298;49.246;9.410;2023-01-19T11:53:16;98613.09;;;3.12
69186;BMP280;56298;49.246;9.410;2023-01-19T11:55:47;98612.63;;;3.10
69186;BMP280;56298;49.246;9.410;2023-01-19T11:58:15;98612.34;;;3.12
69186;BMP280;56298;49.246;9.410;2023-01-19T12:01:01;98607.72;;;3.30
69186;BMP280;56298;49.246;9.410;2023-01-19T12:03:30;98602.25;;;3.39
69186;BMP280;56298;49.246;9.410;2023-01-19T12:06:26;98609.25;;;3.57
69186;BMP280;56298;49.246;9.410;2023-01-19T12:08:56;98606.41;;;3.54
69186;BMP280;56298;49.246;9.410;2023-01-19T12:11:30;98609.78;;;3.33
69186;BMP280;56298;49.246;9.410;2023-01-19T12:13:56;98613.25;;;3.34
69186;BMP280;56298;49.246;9.410;2023-01-19T12:16:23;98608.19;;;3.23
69186;BMP280;56298;49.246;9.410;2023-01-19T12:18:54;98618.88;;;3.28
69186;BMP280;56298;49.246;9.410;2023-01-19T12:21:20;98615.03;;;3.21
69186;BMP280;56298;49.246;9.410;2023-01-19T12:26:27;98616.16;;;3.28
69186;BMP280;56298;49.246;9.410;2023-01-19T12:28:54;98611.53;;;3.55
69186;BMP280;56298;49.246;9.410;2023-01-19T12:31:22;98602.41;;;3.69
69186;BMP280;56298;49.246;9.410;2023-01-19T12:33:49;98615.34;;;3.45
69186;BMP280;56298;49.246;9.410;2023-01-19T12:39:16;98604.66;;;3.31
69186;BMP280;56298;49.246;9.410;2023-01-19T12:41:42;98613.13;;;3.30
69186;BMP280;56298;49.246;9.410;2023-01-19T12:46:52;98605.94;;;2.99
69186;BMP280;56298;49.246;9.410;2023-01-19T12:51:53;98602.53;;;2.58
69186;BMP280;56298;49.246;9.410;2023-01-19T12:54:30;98596.84;;;2.68
69186;BMP280;56298;49.246;9.410;2023-01-19T12:57:00;98604.97;;;2.77
69186;BMP280;56298;49.246;9.410;2023-01-19T12:59:26;98600.78;;;2.71
69186;BMP280;56298;49.246;9.410;2023-01-19T13:13:38;98601.34;;;2.90
69186;BMP280;56298;49.246;9.410;2023-01-19T13:21:40;98604.47;;;2.57
69186;BMP280;56298;49.246;9.410;2023-01-19T13:24:09;98610.84;;;2.61
69186;BMP280;56298;49.246;9.410;2023-01-19T13:26:37;98602.28;;;2.86
69186;BMP280;56298;49.246;9.410;2023-01-19T13:31:50;98597.97;;;2.85
69186;BMP280;56298;49.246;9.410;2023-01-19T13:34:26;98600.22;;;2.83
69186;BMP280;56298;49.246;9.410;2023-01-19T13:36:54;98604.66;;;2.96
69186;BMP280;56298;49.246;9.410;2023-01-19T13:39:27;98604.53;;;3.01
69186;BMP280;56298;49.246;9.410;2023-01-19T13:41:56;98602.63;;;2.93
69186;BMP280;56298;49.246;9.410;2023-01-19T13:44:24;98605.94;;;2.99
69186;BMP280;56298;49.246;9.410;2023-01-19T13:46:51;98604.69;;;3.14
69186;BMP280;56298;49.246;9.410;2023-01-19T13:49:28;98604.03;;;3.26
69186;BMP280;56298;49.246;9.410;2023-01-19T13:52:15;98608.03;;;3.28
69186;BMP280;56298;49.246;9.410;2023-01-19T13:54:51;98612.16;;;3.08
69186;BMP280;56298;49.246;9.410;2023-01-19T14:03:01;98613.38;;;2.75
69186;BMP280;56298;49.246;9.410;2023-01-19T14:05:32;98615.47;;;2.70
69186;BMP280;56298;49.246;9.410;2023-01-19T14:10:46;98618.00;;;2.66
69186;BMP280;56298;49.246;9.410;2023-01-19T14:13:24;98624.06;;;2.72
69186;BMP280;56298;49.246;9.410;2023-01-19T14:15:52;98628.84;;;2.66
69186;BMP280;56298;49.246;9.410;2023-01-19T14:18:21;98629.91;;;2.56
69186;BMP280;56298;49.246;9.410;2023-01-19T14:20:53;98624.63;;;2.42
69186;BMP280;56298;49.246;9.410;2023-01-19T14:23:42;98627.53;;;2.55
69186;BMP280;56298;49.246;9.410;2023-01-19T14:26:45;98625.59;;;2.46
69186;BMP280;56298;49.246;9.410;2023-01-19T14:34:44;98631.22;;;2.68
69186;BMP280;56298;49.246;9.410;2023-01-19T14:37:27;98635.28;;;2.47
69186;BMP280;56298;49.246;9.410;2023-01-19T14:42:37;98627.16;;;2.38
69186;BMP280;56298;49.246;9.410;2023-01-19T14:45:16;98625.53;;;2.29
69186;BMP280;56298;49.246;9.410;2023-01-19T14:47:43;98625.84;;;2.27
69186;BMP280;56298;49.246;9.410;2023-01-19T14:50:48;98629.28;;;2.19
69186;BMP280;56298;49.246;9.410;2023-01-19T14:53:18;98629.25;;;2.10
69186;BMP280;56298;49.246;9.410;2023-01-19T14:55:48;98626.56;;;2.19
69186;BMP280;56298;49.246;9.410;2023-01-19T14:58:17;98629.66;;;2.26
69186;BMP280;56298;49.246;9.410;2023-01-19T15:00:44;98623.84;;;2.10
69186;BMP280;56298;49.246;9.410;2023-01-19T15:03:10;98634.78;;;2.05
69186;BMP280;56298;49.246;9.410;2023-01-19T15:05:37;98627.66;;;2.09
69186;BMP280;56298;49.246;9.410;2023-01-19T15:08:03;98633.06;;;2.09
69186;BMP280;56298;49.246;9.410;2023-01-19T15:10:29;98633.63;;;1.97
69186;BMP280;56298;49.246;9.410;2023-01-19T15:12:55;98633.94;;;1.95
69186;BMP280;56298;49.246;9.410;2023-01-19T15:15:29;98636.63;;;1.95
69186;BMP280;56298;49.246;9.410;2023-01-19T15:17:56;98642.34;;;1.94
69186;BMP280;56298;49.246;9.410;2023-01-19T15:20:22;98649.03;;;1.96
69186;BMP280;56298;49.246;9.410;2023-01-19T15:22:48;98648.22;;;1.87
69186;BMP280;56298;49.246;9.410;2023-01-19T15:25:19;98647.28;;;1.92
69186;BMP280;56298;49.246;9.410;2023-01-19T15:27:45;98637.09;;;1.89
69186;BMP280;56298;49.246;9.410;2023-01-19T15:30:23;98629.81;;;1.89
69186;BMP280;56298;49.246;9.410;2023-01-19T15:32:49;98641.06;;;1.91
69186;BMP280;56298;49.246;9.410;2023-01-19T15:35:15;98636.47;;;1.92
69186;BMP280;56298;49.246;9.410;2023-01-19T15:37:40;98625.94;;;1.81
69186;BMP280;56298;49.246;9.410;2023-01-19T15:40:06;98629.00;;;1.89